Time;durP1;ratioP1;P1;durP2;ratioP2;P2;SDS_P1;SDS_P2;PMS_P1;PMS_P2;Temp;Humidity;BMP_temperature;BMP_pressure;BME280_temperature;BME280_humidity;BME280_pressure;Samples;Min_cycle;Max_cycle;Signal;HPM_P1;HPM_P2
2021/01/06 00:00:53;;;;;;;7.33;2.77;;;3.10;92.10;;;;;;5067545;28;20146;-76
2021/01/06 00:03:21;;;;;;;5.83;2.53;;;3.10;92.10;;;;;;5067397;28;20151;-75
2021/01/06 00:05:56;;;;;;;7.33;3.10;;;3.10;92.10;;;;;;5050694;28;20048;-69
2021/01/06 00:08:23;;;;;;;7.20;3.00;;;3.10;92.20;;;;;;5070305;28;20036;-76
2021/01/06 00:10:54;;;;;;;8.03;2.67;;;3.10;92.20;;;;;;5069939;28;20028;-74
2021/01/06 00:13:20;;;;;;;9.30;2.87;;;3.10;92.10;;;;;;5068472;28;20119;-74
2021/01/06 00:15:46;;;;;;;6.93;3.10;;;3.00;92.00;;;;;;5068341;28;20119;-75
2021/01/06 00:18:14;;;;;;;7.83;3.00;;;3.00;92.00;;;;;;5069758;28;20063;-75
2021/01/06 00:20:40;;;;;;;7.37;2.93;;;3.00;92.00;;;;;;5052095;28;20081;-76
2021/01/06 00:23:06;;;;;;;8.30;3.10;;;3.00;92.00;;;;;;5069146;28;20043;-70
2021/01/06 00:25:33;;;;;;;9.50;3.00;;;2.90;92.00;;;;;;5073436;28;20029;-76
2021/01/06 00:28:00;;;;;;;8.00;2.80;;;2.90;92.00;;;;;;5072615;28;20409;-75
2021/01/06 00:30:28;;;;;;;6.50;2.60;;;2.90;92.20;;;;;;5073373;28;21882;-76
2021/01/06 00:32:54;;;;;;;8.33;2.87;;;2.90;92.20;;;;;;5073374;28;20039;-76
2021/01/06 00:35:22;;;;;;;8.97;3.23;;;2.90;92.10;;;;;;5072889;28;20035;-77
2021/01/06 00:37:48;;;;;;;7.43;3.00;;;2.90;92.10;;;;;;5073602;28;20393;-75
2021/01/06 00:40:16;;;;;;;6.70;2.80;;;2.90;92.10;;;;;;5072151;28;20119;-76
2021/01/06 00:42:42;;;;;;;6.63;2.70;;;2.90;92.10;;;;;;5072900;28;20036;-76
2021/01/06 00:45:13;;;;;;;8.50;3.30;;;2.90;92.10;;;;;;5073275;28;20041;-76
2021/01/06 00:47:40;;;;;;;8.33;3.10;;;2.90;92.10;;;;;;5072917;28;20124;-76
2021/01/06 00:50:07;;;;;;;7.73;3.30;;;3.00;92.10;;;;;;5072026;28;20037;-76
2021/01/06 00:52:33;;;;;;;9.07;3.23;;;3.00;92.10;;;;;;5054898;28;20032;-75
2021/01/06 00:54:59;;;;;;;9.13;3.23;;;3.00;92.10;;;;;;5072569;28;20032;-76
2021/01/06 00:57:25;;;;;;;7.47;3.20;;;3.00;92.00;;;;;;5073048;28;20037;-75
2021/01/06 00:59:51;;;;;;;7.00;2.97;;;2.90;92.00;;;;;;5071374;28;20119;-75
2021/01/06 01:02:18;;;;;;;9.63;3.27;;;2.90;91.90;;;;;;5072727;28;20387;-75
2021/01/06 01:04:45;;;;;;;6.47;2.83;;;2.90;92.00;;;;;;5071504;28;20059;-76
2021/01/06 01:07:12;;;;;;;9.57;3.40;;;2.90;92.10;;;;;;5072623;28;20579;-76
2021/01/06 01:09:38;;;;;;;8.57;3.00;;;2.90;92.00;;;;;;5072841;28;20465;-76
2021/01/06 01:12:08;;;;;;;6.50;2.70;;;2.90;92.00;;;;;;5072220;28;20080;-75
2021/01/06 01:14:33;;;;;;;7.53;2.97;;;2.90;92.00;;;;;;5072473;28;20048;-76
2021/01/06 01:17:01;;;;;;;6.90;2.80;;;2.90;92.00;;;;;;5072336;28;20037;-75
2021/01/06 01:19:27;;;;;;;7.87;2.83;;;2.90;92.00;;;;;;5071585;28;20040;-76
2021/01/06 01:21:52;;;;;;;7.67;3.00;;;2.90;92.00;;;;;;5071021;28;20179;-76
2021/01/06 01:24:18;;;;;;;7.70;3.00;;;2.90;91.90;;;;;;5071893;28;20055;-76
2021/01/06 01:26:44;;;;;;;6.40;2.70;;;2.90;92.00;;;;;;5072685;28;20047;-76
2021/01/06 01:29:09;;;;;;;6.97;2.70;;;2.90;92.00;;;;;;5072224;28;20045;-75
2021/01/06 01:31:37;;;;;;;7.93;2.70;;;2.90;92.00;;;;;;5072457;28;20058;-76
2021/01/06 01:34:04;;;;;;;6.20;2.43;;;2.90;91.90;;;;;;5072358;28;20036;-75
2021/01/06 01:36:30;;;;;;;8.00;2.80;;;2.90;91.80;;;;;;5071510;28;20121;-75
2021/01/06 01:38:57;;;;;;;6.47;2.63;;;2.90;91.90;;;;;;5072422;28;20051;-76
2021/01/06 01:41:25;;;;;;;7.33;3.10;;;2.90;91.80;;;;;;5071918;28;20043;-76
2021/01/06 01:43:51;;;;;;;7.40;2.70;;;2.90;91.80;;;;;;5072518;28;20029;-73
2021/01/06 01:46:23;;;;;;;8.93;2.50;;;2.80;91.80;;;;;;5071865;28;20493;-73
2021/01/06 01:48:50;;;;;;;5.90;2.47;;;2.80;91.80;;;;;;5071829;28;20408;-73
2021/01/06 01:51:27;;;;;;;7.07;2.70;;;2.90;91.80;;;;;;5070846;28;20453;-73
2021/01/06 01:54:03;;;;;;;6.47;2.43;;;2.90;91.80;;;;;;5071513;28;20033;-73
2021/01/06 01:56:45;;;;;;;6.73;2.37;;;2.90;91.80;;;;;;5070274;28;20066;-73
2021/01/06 01:59:17;;;;;;;8.63;2.57;;;2.90;91.80;;;;;;5071716;28;20033;-73
2021/01/06 02:01:47;;;;;;;9.70;2.80;;;2.90;91.80;;;;;;5071807;28;20166;-74
2021/01/06 02:04:39;;;;;;;6.78;2.70;;;2.90;91.80;;;;;;5071262;28;20028;-74
2021/01/06 02:07:17;;;;;;;7.13;2.67;;;2.90;91.80;;;;;;5070836;28;20113;-73
2021/01/06 02:10:00;;;;;;;6.40;2.43;;;2.90;91.70;;;;;;5071661;28;20032;-74
2021/01/06 02:12:53;;;;;;;7.57;2.70;;;2.90;91.70;;;;;;5071181;28;20037;-74
2021/01/06 02:15:37;;;;;;;7.53;2.87;;;2.90;91.80;;;;;;5070901;28;20174;-73
2021/01/06 02:18:05;;;;;;;9.50;3.33;;;2.90;91.80;;;;;;5071568;28;20132;-73
2021/01/06 02:20:31;;;;;;;8.67;3.07;;;2.90;91.70;;;;;;5071355;28;20413;-73
2021/01/06 02:22:57;;;;;;;7.17;3.10;;;2.90;91.60;;;;;;5071219;28;20039;-73
2021/01/06 02:25:26;;;;;;;8.10;3.20;;;2.90;91.90;;;;;;5070754;28;20041;-73
2021/01/06 02:27:55;;;;;;;8.00;2.97;;;2.90;91.60;;;;;;5071389;28;20586;-73
2021/01/06 02:30:22;;;;;;;7.33;3.50;;;2.90;91.70;;;;;;5069773;28;20059;-72
2021/01/06 02:32:49;;;;;;;8.57;3.17;;;2.90;91.70;;;;;;5070752;28;20040;-74
2021/01/06 02:35:15;;;;;;;8.80;3.10;;;2.90;91.60;;;;;;5069802;28;20115;-74
2021/01/06 02:37:41;;;;;;;7.27;3.10;;;2.90;91.70;;;;;;5070729;28;20033;-74
2021/01/06 02:40:09;;;;;;;6.90;2.93;;;2.90;91.70;;;;;;5070008;28;20040;-73
2021/01/06 02:42:35;;;;;;;10.63;3.50;;;2.90;91.60;;;;;;5070364;28;20025;-71
2021/01/06 02:45:09;;;;;;;7.80;3.37;;;2.90;91.60;;;;;;5069546;28;20037;-72
2021/01/06 02:47:39;;;;;;;9.03;3.50;;;2.90;91.60;;;;;;5070722;28;20029;-72
2021/01/06 02:50:08;;;;;;;8.52;2.90;;;2.90;91.70;;;;;;5071081;28;20044;-72
2021/01/06 02:52:51;;;;;;;7.30;3.00;;;2.90;91.70;;;;;;5070757;28;20025;-72
2021/01/06 02:55:18;;;;;;;6.57;2.70;;;2.90;91.70;;;;;;5069257;28;20056;-72
2021/01/06 02:57:45;;;;;;;7.93;3.53;;;2.90;91.70;;;;;;5070969;28;20035;-73
2021/01/06 03:00:14;;;;;;;7.27;3.07;;;2.90;91.70;;;;;;5070599;28;20102;-73
2021/01/06 03:02:41;;;;;;;9.20;3.57;;;2.90;91.70;;;;;;5070534;28;20454;-73
2021/01/06 03:05:33;;;;;;;7.47;3.50;;;3.00;91.70;;;;;;5070664;28;20060;-73
2021/01/06 03:07:59;;;;;;;8.60;3.40;;;3.00;91.70;;;;;;5070280;28;20444;-73
2021/01/06 03:10:25;;;;;;;6.77;3.10;;;3.00;91.60;;;;;;5070919;28;20044;-74
2021/01/06 03:12:53;;;;;;;9.17;3.33;;;2.90;91.50;;;;;;5068722;28;20035;-73
2021/01/06 03:15:21;;;;;;;10.03;3.53;;;2.90;91.50;;;;;;5070321;28;20048;-72
2021/01/06 03:17:48;;;;;;;7.50;3.30;;;2.90;91.50;;;;;;5070744;28;20033;-72
2021/01/06 03:20:32;;;;;;;10.20;3.60;;;2.90;91.50;;;;;;5070421;28;20511;-73
2021/01/06 03:23:07;;;;;;;8.77;3.57;;;2.90;91.40;;;;;;5069965;28;20064;-72
2021/01/06 03:25:35;;;;;;;8.83;3.70;;;2.90;91.40;;;;;;5069014;28;20405;-72
2021/01/06 03:28:01;;;;;;;8.00;3.47;;;2.90;91.50;;;;;;5069039;28;20504;-73
2021/01/06 03:30:30;;;;;;;8.77;3.80;;;2.80;91.50;;;;;;5070667;28;20086;-74
2021/01/06 03:33:18;;;;;;;8.03;3.43;;;2.90;91.50;;;;;;5070363;28;20086;-73
2021/01/06 03:35:47;;;;;;;9.80;4.20;;;2.90;91.50;;;;;;5070125;28;20044;-73
2021/01/06 03:38:16;;;;;;;8.27;3.70;;;2.90;91.50;;;;;;5069208;28;20555;-73
2021/01/06 03:40:48;;;;;;;7.90;3.90;;;2.90;91.50;;;;;;5068834;28;20040;-73
2021/01/06 03:43:17;;;;;;;8.03;3.80;;;2.90;91.50;;;;;;5052184;28;20632;-73
2021/01/06 03:45:47;;;;;;;8.67;3.70;;;2.90;91.40;;;;;;5069747;28;20036;-74
2021/01/06 03:48:28;;;;;;;8.60;3.83;;;2.90;91.40;;;;;;5070571;28;20397;-73
2021/01/06 03:51:09;;;;;;;9.48;3.70;;;2.90;91.40;;;;;;5070094;28;20028;-72
2021/01/06 03:53:41;;;;;;;10.35;3.92;;;2.90;91.40;;;;;;5070119;28;20028;-73
2021/01/06 03:56:22;;;;;;;8.40;3.80;;;2.90;91.40;;;;;;5069824;28;20060;-73
2021/01/06 03:59:01;;;;;;;12.30;3.60;;;2.90;91.40;;;;;;5071102;28;20397;-72
2021/01/06 04:01:56;;;;;;;8.20;3.67;;;2.90;91.40;;;;;;5073938;28;20086;-72
2021/01/06 04:04:30;;;;;;;8.37;3.77;;;2.90;91.40;;;;;;5073458;28;20044;-73
2021/01/06 04:06:59;;;;;;;8.97;4.07;;;2.90;91.40;;;;;;5074184;28;20098;-73
2021/01/06 04:09:27;;;;;;;8.77;3.60;;;2.90;91.40;;;;;;5073516;28;20047;-73
2021/01/06 04:12:14;;;;;;;9.17;4.07;;;2.90;91.30;;;;;;5073830;28;20044;-73
2021/01/06 04:14:40;;;;;;;7.53;4.07;;;3.00;91.30;;;;;;5073385;28;20417;-73
2021/01/06 04:17:34;;;;;;;10.63;4.07;;;2.90;91.30;;;;;;5072647;28;20536;-73
2021/01/06 04:20:15;;;;;;;7.50;3.50;;;3.00;91.30;;;;;;5073415;28;20059;-72
2021/01/06 04:22:54;;;;;;;9.60;4.00;;;3.00;91.30;;;;;;5073270;28;20059;-70
2021/01/06 04:25:32;;;;;;;9.17;4.03;;;2.90;91.20;;;;;;5072097;28;20032;-73
2021/01/06 04:28:14;;;;;;;9.73;3.97;;;2.90;91.20;;;;;;5073314;28;20094;-73
2021/01/06 04:30:43;;;;;;;10.13;4.20;;;2.90;91.20;;;;;;5073735;28;20142;-72
2021/01/06 04:33:13;;;;;;;8.50;3.90;;;2.90;91.20;;;;;;5071645;28;20029;-73
2021/01/06 04:35:39;;;;;;;9.65;4.38;;;2.90;91.20;;;;;;5073180;28;20044;-74
2021/01/06 04:38:06;;;;;;;10.57;4.27;;;2.90;91.10;;;;;;5073121;28;20029;-73
2021/01/06 04:40:36;;;;;;;8.90;3.90;;;2.90;91.20;;;;;;5072269;28;20029;-74
2021/01/06 04:43:12;;;;;;;8.25;4.10;;;2.80;91.10;;;;;;5072814;28;20028;-73
2021/01/06 04:45:43;;;;;;;9.27;3.70;;;2.90;91.20;;;;;;5073201;28;20063;-72
2021/01/06 04:48:47;;;;;;;11.48;3.53;;;2.80;91.10;;;;;;5072905;28;20059;-72
2021/01/06 04:51:29;;;;;;;8.63;4.13;;;2.80;91.20;;;;;;5072549;28;20036;-73
2021/01/06 04:54:01;;;;;;;8.43;3.60;;;2.80;91.20;;;;;;5072897;28;20489;-73
2021/01/06 04:56:51;;;;;;;7.17;3.37;;;2.80;91.20;;;;;;5072359;28;20562;-73
2021/01/06 04:59:50;;;;;;;11.27;4.32;;;2.90;91.30;;;;;;5071492;28;20452;-72
2021/01/06 05:02:34;;;;;;;9.73;4.07;;;2.90;91.30;;;;;;5072566;28;20087;-72
2021/01/06 05:05:05;;;;;;;10.47;4.17;;;2.90;91.20;;;;;;5072941;28;20390;-72
2021/01/06 05:08:01;;;;;;;12.47;4.50;;;2.90;91.10;;;;;;5072655;28;20043;-72
2021/01/06 05:10:35;;;;;;;8.17;3.73;;;2.90;91.20;;;;;;5072505;28;20032;-73
2021/01/06 05:13:17;;;;;;;6.97;3.57;;;2.90;91.20;;;;;;5072530;28;20504;-73
2021/01/06 05:15:54;;;;;;;11.47;3.97;;;2.90;91.10;;;;;;5071995;28;20517;-72
2021/01/06 05:18:20;;;;;;;10.73;4.10;;;2.90;91.10;;;;;;5072572;28;20431;-72
2021/01/06 05:20:46;;;;;;;9.43;4.33;;;2.90;91.10;;;;;;5053792;28;20178;-73
2021/01/06 05:23:25;;;;;;;9.90;3.67;;;2.90;91.20;;;;;;5070526;28;20063;-73
2021/01/06 05:25:52;;;;;;;8.13;3.67;;;2.90;91.20;;;;;;5071275;28;20466;-74
2021/01/06 05:28:21;;;;;;;10.80;4.10;;;3.00;91.20;;;;;;5068908;28;20071;-73
2021/01/06 05:30:53;;;;;;;8.07;3.93;;;3.00;91.20;;;;;;5071075;28;20032;-73
2021/01/06 05:33:24;;;;;;;10.97;4.53;;;3.00;91.00;;;;;;5070029;28;20040;-73
2021/01/06 05:35:50;;;;;;;8.03;3.73;;;3.00;91.10;;;;;;5070000;28;20114;-73
2021/01/06 05:38:16;;;;;;;9.57;3.70;;;3.00;91.10;;;;;;5072093;28;20071;-73
2021/01/06 05:40:43;;;;;;;9.40;3.90;;;3.00;91.10;;;;;;5071702;28;20041;-73
2021/01/06 05:43:18;;;;;;;9.33;3.63;;;3.00;91.00;;;;;;5070803;28;20039;-73
2021/01/06 05:45:54;;;;;;;9.10;4.03;;;3.00;91.10;;;;;;5070582;28;20520;-74
2021/01/06 05:48:23;;;;;;;10.03;4.20;;;3.00;91.10;;;;;;5071911;28;20036;-73
2021/01/06 05:51:03;;;;;;;8.63;4.00;;;3.00;91.10;;;;;;5070738;28;20588;-72
2021/01/06 05:53:32;;;;;;;;;;;3.00;91.10;;;;;;5066527;28;20097;-72
2021/01/06 05:56:03;;;;;;;9.73;4.30;;;3.00;91.00;;;;;;5070725;28;19920;-73
2021/01/06 05:58:35;;;;;;;;;;;3.00;91.00;;;;;;5068120;28;20029;-73
2021/01/06 06:01:12;;;;;;;11.67;4.00;;;3.00;91.00;;;;;;5069926;28;19912;-73
2021/01/06 06:04:05;;;;;;;9.50;3.80;;;3.00;90.90;;;;;;5067648;28;20089;-74
2021/01/06 06:06:46;;;;;;;12.23;3.90;;;2.90;90.90;;;;;;5066645;28;20044;-72
2021/01/06 06:09:34;;;;;;;9.10;3.88;;;2.90;90.90;;;;;;5050029;28;20416;-72
2021/01/06 06:12:03;;;;;;;9.80;3.70;;;2.90;90.90;;;;;;5058196;28;20566;-74
2021/01/06 06:14:34;;;;;;;10.17;3.90;;;2.90;90.90;;;;;;5068726;28;20086;-72
2021/01/06 06:17:09;;;;;;;10.37;3.63;;;2.90;91.00;;;;;;5070221;28;20039;-73
2021/01/06 06:19:54;;;;;;;10.10;3.90;;;2.90;91.00;;;;;;5071185;28;20060;-74
2021/01/06 06:22:25;;;;;;;9.03;4.20;;;2.90;91.00;;;;;;5069107;28;20056;-72
2021/01/06 06:25:15;;;;;;;11.57;4.47;;;2.80;91.00;;;;;;5070907;28;20039;-74
2021/01/06 06:28:01;;;;;;;11.82;4.25;;;2.80;91.00;;;;;;5070859;28;20040;-74
2021/01/06 06:30:36;;;;;;;9.33;4.00;;;2.80;90.90;;;;;;5071102;28;20098;-73
2021/01/06 06:33:12;;;;;;;10.83;4.60;;;2.80;91.00;;;;;;5070586;28;20040;-74
2021/01/06 06:35:38;;;;;;;9.53;4.60;;;2.80;91.00;;;;;;5069602;28;20037;-73
2021/01/06 06:38:07;;;;;;;14.33;6.33;;;2.80;91.30;;;;;;5069557;28;20568;-74
2021/01/06 06:41:00;;;;;;;9.97;4.50;;;2.80;91.10;;;;;;5069817;28;20507;-74
2021/01/06 06:43:40;;;;;;;12.53;5.00;;;2.80;91.10;;;;;;5070642;28;20037;-72
2021/01/06 06:46:46;;;;;;;13.05;4.68;;;2.70;91.10;;;;;;5070570;28;20036;-74
2021/01/06 06:49:22;;;;;;;12.93;5.50;;;2.70;91.10;;;;;;5069341;28;20055;-74
2021/01/06 06:51:58;;;;;;;12.90;6.20;;;2.70;91.20;;;;;;5070934;28;20123;-73
2021/01/06 06:54:49;;;;;;;12.47;5.57;;;2.70;91.20;;;;;;5070456;28;20040;-74
2021/01/06 06:57:38;;;;;;;13.43;5.35;;;2.70;91.20;;;;;;5070603;28;20371;-74
2021/01/06 07:00:18;;;;;;;14.77;5.80;;;2.70;91.30;;;;;;5070449;28;20043;-74
2021/01/06 07:02:46;;;;;;;10.53;5.03;;;2.70;91.30;;;;;;5070471;28;20060;-74
2021/01/06 07:05:27;;;;;;;13.87;6.00;;;2.70;91.40;;;;;;5070672;28;20584;-74
2021/01/06 07:07:57;;;;;;;14.30;7.10;;;2.70;91.40;;;;;;5069308;28;20314;-74
2021/01/06 07:10:29;;;;;;;15.27;6.40;;;2.70;91.40;;;;;;5070898;28;20405;-74
2021/01/06 07:13:05;;;;;;;15.00;7.83;;;2.70;91.30;;;;;;5069035;28;20032;-74
2021/01/06 07:15:36;;;;;;;19.33;8.20;;;2.70;91.40;;;;;;5070420;28;20040;-74
2021/01/06 07:18:39;;;;;;;17.35;8.10;;;2.70;91.40;;;;;;5070304;28;20103;-74
2021/01/06 07:21:08;;;;;;;17.53;8.07;;;2.60;91.50;;;;;;5070649;28;20477;-74
2021/01/06 07:23:37;;;;;;;14.37;6.87;;;2.70;91.50;;;;;;5070457;28;20040;-75
2021/01/06 07:26:08;;;;;;;12.40;6.60;;;2.60;91.40;;;;;;5070133;28;20072;-73
2021/01/06 07:28:34;;;;;;;11.15;5.85;;;2.60;91.40;;;;;;5070736;28;20036;-74
2021/01/06 07:31:22;;;;;;;13.70;5.83;;;2.60;91.50;;;;;;5070239;28;20090;-74
2021/01/06 07:33:55;;;;;;;10.53;4.83;;;2.60;91.50;;;;;;5074498;28;20124;-75
2021/01/06 07:36:23;;;;;;;10.13;4.63;;;2.60;91.50;;;;;;5074024;28;20044;-73
2021/01/06 07:38:51;;;;;;;10.13;5.20;;;2.60;91.60;;;;;;5072886;28;20044;-75
2021/01/06 07:41:19;;;;;;;12.37;5.97;;;2.50;91.50;;;;;;5071332;28;20371;-73
2021/01/06 07:43:59;;;;;;;13.27;5.47;;;2.50;91.60;;;;;;5073295;28;20048;-75
2021/01/06 07:46:27;;;;;;;11.70;5.53;;;2.50;91.60;;;;;;5072306;28;20036;-76
2021/01/06 07:48:57;;;;;;;9.43;5.20;;;2.50;91.60;;;;;;5072983;28;20032;-76
2021/01/06 07:51:29;;;;;;;9.57;4.60;;;2.50;91.60;;;;;;5069624;28;20145;-75
2021/01/06 07:54:08;;;;;;;10.70;4.93;;;2.50;91.60;;;;;;5072440;28;20067;-76
2021/01/06 07:56:46;;;;;;;11.77;5.60;;;2.50;91.60;;;;;;5072014;28;20393;-77
2021/01/06 08:00:04;;;;;;;9.73;4.77;;;2.50;91.70;;;;;;5071350;28;20059;-77
2021/01/06 08:03:12;;;;;;;13.07;5.97;;;2.50;91.70;;;;;;5049457;28;20515;-77
2021/01/06 08:05:37;;;;;;;12.57;5.33;;;2.50;91.70;;;;;;5049490;28;20091;-75
2021/01/06 08:08:03;;;;;;;10.20;4.73;;;2.50;91.70;;;;;;5052433;28;20040;-76
2021/01/06 08:10:30;;;;;;;10.83;5.10;;;2.50;91.80;;;;;;5052382;28;20035;-76
2021/01/06 08:13:14;;;;;;;11.30;5.00;;;2.50;91.90;;;;;;5050626;28;20033;-74
2021/01/06 08:15:41;;;;;;;9.23;4.37;;;2.50;91.90;;;;;;5051356;28;20628;-75
2021/01/06 08:18:25;;;;;;;11.20;5.50;;;2.50;91.90;;;;;;5052195;28;20112;-76
2021/01/06 08:20:55;;;;;;;8.90;4.90;;;2.50;91.90;;;;;;5051708;28;20107;-76
2021/01/06 08:23:42;;;;;;;10.83;5.10;;;2.50;91.90;;;;;;5051649;28;20029;-77
2021/01/06 08:26:27;;;;;;;11.17;5.10;;;2.50;91.90;;;;;;5053076;28;20025;-76
2021/01/06 08:29:15;;;;;;;11.23;4.97;;;2.60;91.90;;;;;;5052993;28;20090;-77
2021/01/06 08:31:42;;;;;;;10.73;5.00;;;2.60;91.90;;;;;;5053221;28;20029;-77
2021/01/06 08:34:19;;;;;;;11.33;5.30;;;2.60;91.90;;;;;;5051651;28;20053;-75
2021/01/06 08:36:51;;;;;;;10.17;4.57;;;2.60;91.90;;;;;;5051292;28;20044;-76
2021/01/06 08:39:21;;;;;;;9.80;4.80;;;2.60;91.90;;;;;;5050228;28;20118;-76
2021/01/06 08:41:48;;;;;;;9.83;4.80;;;2.50;91.90;;;;;;5050590;28;20304;-75
2021/01/06 08:44:41;;;;;;;10.30;4.77;;;2.60;91.80;;;;;;5050299;28;20091;-76
2021/01/06 08:47:12;;;;;;;10.20;5.27;;;2.50;91.90;;;;;;5051163;28;20053;-75
2021/01/06 08:49:45;;;;;;;10.13;5.27;;;2.60;91.90;;;;;;5053124;28;20057;-76
2021/01/06 08:52:16;;;;;;;9.67;4.70;;;2.50;91.90;;;;;;5051036;28;20040;-76
2021/01/06 08:54:57;;;;;;;10.53;5.07;;;2.50;91.80;;;;;;5052879;28;20500;-75
2021/01/06 08:57:36;;;;;;;10.35;5.20;;;2.50;91.90;;;;;;5051277;28;20404;-76
2021/01/06 09:00:22;;;;;;;10.70;5.00;;;2.50;92.00;;;;;;5057963;28;20123;-76
2021/01/06 09:02:55;;;;;;;9.40;4.90;;;2.50;92.10;;;;;;5070863;28;20056;-74
2021/01/06 09:05:51;;;;;;;10.50;5.17;;;2.50;92.10;;;;;;5072613;28;20105;-75
2021/01/06 09:08:25;;;;;;;10.83;4.93;;;2.60;92.10;;;;;;5072488;28;20063;-75
2021/01/06 09:11:05;;;;;;;11.23;5.50;;;2.60;92.10;;;;;;5072818;28;20032;-75
2021/01/06 09:13:40;;;;;;;9.80;5.05;;;2.60;92.20;;;;;;5072272;28;20040;-75
2021/01/06 09:16:17;;;;;;;11.83;5.03;;;2.70;92.20;;;;;;5072035;28;20052;-76
2021/01/06 09:19:01;;;;;;;10.53;5.63;;;2.70;92.20;;;;;;5070956;28;20082;-74
2021/01/06 09:21:32;;;;;;;9.80;4.77;;;2.70;92.00;;;;;;5071948;28;20120;-75
2021/01/06 09:24:11;;;;;;;;;;;2.80;92.00;;;;;;5072780;28;20037;-74
2021/01/06 09:26:40;;;;;;;14.03;7.37;;;2.80;92.10;;;;;;5071206;28;19916;-75
2021/01/06 09:29:11;;;;;;;11.80;6.57;;;2.80;92.00;;;;;;5070843;28;20028;-76
2021/01/06 09:31:45;;;;;;;11.40;5.57;;;2.80;92.00;;;;;;5071271;28;20401;-76
2021/01/06 09:34:14;;;;;;;12.77;6.23;;;2.80;92.00;;;;;;5069319;28;20044;-77
2021/01/06 09:36:41;;;;;;;11.03;5.80;;;2.80;92.00;;;;;;5071077;28;20501;-76
2021/01/06 09:39:16;;;;;;;15.03;7.80;;;2.80;92.00;;;;;;5071313;28;20033;-75
2021/01/06 09:41:43;;;;;;;13.67;7.10;;;2.80;92.10;;;;;;5070737;28;20485;-76
2021/01/06 09:44:11;;;;;;;13.23;7.40;;;2.80;92.20;;;;;;5071349;28;20097;-76
2021/01/06 09:46:44;;;;;;;13.03;6.00;;;2.90;92.20;;;;;;5071018;28;20055;-76
2021/01/06 09:49:14;;;;;;;12.50;6.80;;;2.90;92.20;;;;;;5069575;28;20028;-75
2021/01/06 09:51:50;;;;;;;9.87;5.17;;;3.00;92.30;;;;;;5071404;28;20043;-76
2021/01/06 09:54:17;;;;;;;11.87;5.70;;;3.10;92.30;;;;;;5071049;28;20574;-76
2021/01/06 09:56:44;;;;;;;9.30;4.93;;;3.10;92.20;;;;;;5052570;28;20420;-75
2021/01/06 09:59:34;;;;;;;11.47;5.20;;;3.20;92.30;;;;;;5071199;28;20038;-76
2021/01/06 10:02:17;;;;;;;8.27;4.30;;;3.20;92.30;;;;;;5071040;28;20051;-76
2021/01/06 10:04:45;;;;;;;8.80;4.20;;;3.20;92.10;;;;;;5071000;28;20040;-77
2021/01/06 10:07:35;;;;;;;9.27;4.87;;;3.30;92.20;;;;;;5071413;28;20044;-76
2021/01/06 10:10:13;;;;;;;7.80;4.15;;;3.40;92.30;;;;;;5071063;28;20060;-75
2021/01/06 10:13:13;;;;;;;8.00;4.33;;;3.40;92.20;;;;;;5070753;28;20044;-76
2021/01/06 10:15:55;;;;;;;9.57;4.50;;;3.40;92.10;;;;;;5070536;28;20111;-76
2021/01/06 10:18:41;;;;;;;11.00;5.40;;;3.50;92.00;;;;;;5070136;28;20102;-76
2021/01/06 10:21:44;;;;;;;10.07;5.10;;;3.50;92.00;;;;;;5070947;28;20041;-75
2021/01/06 10:24:32;;;;;;;9.97;5.17;;;3.50;91.90;;;;;;5046067;28;20029;-76
2021/01/06 10:27:17;;;;;;;10.00;5.20;;;3.50;92.00;;;;;;5070899;28;20033;-76
2021/01/06 10:29:53;;;;;;;8.93;4.80;;;3.60;91.90;;;;;;5070724;28;20051;-76
2021/01/06 10:32:46;;;;;;;10.63;4.90;;;3.50;91.80;;;;;;5069148;28;20029;-76
2021/01/06 10:35:26;;;;;;;9.27;4.87;;;3.50;91.80;;;;;;5070377;28;20123;-76
2021/01/06 10:37:52;;;;;;;9.40;4.60;;;3.50;91.90;;;;;;5069547;28;20037;-75
2021/01/06 10:40:30;;;;;;;8.20;4.50;;;3.50;91.90;;;;;;5052514;28;20413;-76
2021/01/06 10:42:57;;;;;;;9.00;4.43;;;3.50;91.80;;;;;;5070713;28;20037;-75
2021/01/06 10:45:29;;;;;;;8.87;4.13;;;3.50;91.90;;;;;;5070198;28;20450;-77
2021/01/06 10:47:56;;;;;;;10.73;5.23;;;3.50;92.00;;;;;;5070909;28;20101;-76
2021/01/06 10:50:31;;;;;;;9.53;5.40;;;3.50;91.90;;;;;;5068995;28;20033;-76
2021/01/06 10:53:13;;;;;;;8.17;4.03;;;3.50;91.80;;;;;;5066247;28;20041;-77
2021/01/06 10:55:59;;;;;;;8.43;4.67;;;3.50;91.90;;;;;;5070010;28;20039;-76
2021/01/06 10:58:34;;;;;;;7.37;3.60;;;3.60;91.90;;;;;;5070427;28;20120;-76
2021/01/06 11:01:10;;;;;;;8.07;4.00;;;3.60;91.80;;;;;;5070760;28;20512;-76
2021/01/06 11:04:11;;;;;;;9.10;4.17;;;3.50;91.70;;;;;;5069965;28;20408;-77
2021/01/06 11:06:50;;;;;;;9.83;4.10;;;3.50;91.80;;;;;;5069995;28;20048;-76
2021/01/06 11:09:40;;;;;;;7.83;3.70;;;3.60;91.80;;;;;;5070537;28;20036;-77
2021/01/06 11:12:21;;;;;;;7.88;3.30;;;3.60;91.80;;;;;;5068175;28;20124;-76
2021/01/06 11:14:53;;;;;;;7.87;3.67;;;3.60;91.60;;;;;;5069494;28;20082;-66
2021/01/06 11:17:31;;;;;;;8.30;3.53;;;3.60;91.60;;;;;;5069962;28;20136;-65
2021/01/06 11:20:22;;;;;;;7.53;3.70;;;3.50;91.60;;;;;;5070012;28;20041;-65
2021/01/06 11:22:50;;;;;;;7.97;3.92;;;3.50;91.60;;;;;;5058769;28;20077;-66
2021/01/06 11:25:42;;;;;;;8.63;4.10;;;3.50;91.60;;;;;;5048440;28;20112;-66
2021/01/06 11:28:10;;;;;;;7.60;3.93;;;3.50;91.80;;;;;;5049935;28;20086;-66
2021/01/06 11:30:39;;;;;;;8.00;3.60;;;3.50;91.80;;;;;;5050208;28;21137;-66
2021/01/06 11:33:14;;;;;;;7.53;4.07;;;3.60;91.90;;;;;;5048345;28;20179;-66
2021/01/06 11:36:07;;;;;;;8.57;3.63;;;3.60;91.80;;;;;;5049849;28;20108;-66
2021/01/06 11:38:48;;;;;;;7.03;3.87;;;3.60;91.60;;;;;;5040174;28;20102;-66
2021/01/06 11:41:37;;;;;;;7.30;3.80;;;3.60;91.60;;;;;;5048559;28;20037;-66
2021/01/06 11:44:21;;;;;;;7.40;3.50;;;3.60;91.50;;;;;;5064411;28;20087;-66
2021/01/06 11:46:50;;;;;;;6.93;3.50;;;3.60;91.60;;;;;;5049778;28;20048;-67
2021/01/06 11:49:49;;;;;;;6.97;3.70;;;3.50;91.50;;;;;;5050244;28;20060;-66
2021/01/06 11:52:41;;;;;;;7.00;3.03;;;3.40;91.30;;;;;;5049386;28;20060;-68
2021/01/06 11:55:12;;;;;;;6.87;3.40;;;3.40;91.40;;;;;;5049527;28;20040;-68
2021/01/06 11:57:47;;;;;;;7.80;4.30;;;3.40;91.60;;;;;;5049837;28;20083;-68
2021/01/06 12:00:13;;;;;;;7.60;3.50;;;3.40;91.60;;;;;;5064770;28;20083;-67
2021/01/06 12:02:56;;;;;;;9.40;4.90;;;3.40;91.60;;;;;;5048423;28;20045;-68
2021/01/06 12:05:27;;;;;;;9.50;5.50;;;3.30;91.50;;;;;;5049481;28;20041;-68
2021/01/06 12:08:28;;;;;;;9.73;6.27;;;3.30;91.50;;;;;;5049889;28;20033;-67
2021/01/06 12:11:12;;;;;;;7.57;3.72;;;3.30;91.60;;;;;;5064747;28;20043;-68
2021/01/06 12:14:05;;;;;;;6.97;3.70;;;3.30;91.60;;;;;;5049363;28;20033;-66
2021/01/06 12:16:47;;;;;;;8.03;3.73;;;3.30;91.60;;;;;;5049109;28;20040;-68
2021/01/06 12:19:36;;;;;;;8.20;3.73;;;3.30;91.40;;;;;;5050880;28;20057;-66
2021/01/06 12:22:02;;;;;;;7.03;3.40;;;3.20;91.40;;;;;;5051536;28;20421;-67
2021/01/06 12:24:28;;;;;;;8.67;3.93;;;3.20;91.50;;;;;;5061471;28;20032;-68
2021/01/06 12:27:16;;;;;;;7.00;3.47;;;3.20;91.50;;;;;;5072213;28;20037;-67
2021/01/06 12:30:21;;;;;;;7.70;3.67;;;3.20;91.50;;;;;;5072733;28;20037;-66
2021/01/06 12:33:00;;;;;;;7.53;3.67;;;3.20;91.60;;;;;;5072565;28;20036;-67
2021/01/06 12:35:37;;;;;;;8.00;3.47;;;3.20;91.50;;;;;;5073074;28;20128;-68
2021/01/06 12:38:25;;;;;;;6.63;3.20;;;3.20;91.40;;;;;;5072943;28;20040;-67
2021/01/06 12:40:51;;;;;;;6.33;2.93;;;3.20;91.40;;;;;;5071491;28;20122;-67
2021/01/06 12:43:26;;;;;;;6.90;3.33;;;3.20;91.40;;;;;;5072468;28;20036;-68
2021/01/06 12:46:27;;;;;;;8.50;4.00;;;3.10;91.50;;;;;;5072409;28;20032;-68
2021/01/06 12:49:35;;;;;;;7.00;3.50;;;3.10;91.50;;;;;;5067528;28;20044;-67
2021/01/06 12:52:19;;;;;;;8.07;4.20;;;3.10;91.30;;;;;;5069566;28;20532;-67
2021/01/06 12:54:49;;;;;;;6.83;3.10;;;3.10;91.40;;;;;;5072613;28;20036;-67
2021/01/06 12:57:27;;;;;;;6.85;3.05;;;3.10;91.30;;;;;;5072248;28;20044;-65
2021/01/06 13:00:05;;;;;;;6.47;2.90;;;3.10;91.50;;;;;;5071485;28;20125;-68
2021/01/06 13:02:40;;;;;;;6.60;2.87;;;3.10;91.40;;;;;;5070438;28;20063;-66
2021/01/06 13:05:25;;;;;;;7.63;3.10;;;3.10;91.50;;;;;;5071463;28;20060;-67
2021/01/06 13:07:56;;;;;;;5.40;2.77;;;3.10;91.80;;;;;;5072208;28;20095;-66
2021/01/06 13:10:44;;;;;;;6.85;3.85;;;3.10;91.40;;;;;;5072518;28;20484;-67
2021/01/06 13:13:33;;;;;;;6.00;2.73;;;3.10;91.50;;;;;;5071967;28;20044;-67
2021/01/06 13:16:20;;;;;;;5.70;2.40;;;3.10;91.60;;;;;;5071522;28;20158;-67
2021/01/06 13:18:58;;;;;;;6.97;3.03;;;3.20;91.50;;;;;;5071760;28;20032;-67
2021/01/06 13:21:32;;;;;;;7.00;3.23;;;3.20;91.50;;;;;;5071681;28;20058;-66
2021/01/06 13:23:58;;;;;;;7.13;2.70;;;3.20;91.60;;;;;;5070255;28;20032;-68
2021/01/06 13:26:57;;;;;;;6.70;2.80;;;3.20;91.60;;;;;;5069366;28;20618;-67
2021/01/06 13:29:31;;;;;;;8.23;3.23;;;3.20;91.40;;;;;;5068126;28;20044;-67
2021/01/06 13:32:11;;;;;;;7.03;3.13;;;3.20;91.30;;;;;;5072370;28;20567;-66
2021/01/06 13:34:43;;;;;;;6.75;3.10;;;3.20;91.40;;;;;;5071538;28;20123;-68
2021/01/06 13:37:08;;;;;;;7.43;3.03;;;3.10;91.30;;;;;;5071532;28;20060;-67
2021/01/06 13:39:39;;;;;;;7.07;3.67;;;3.10;91.50;;;;;;5071789;28;20431;-68